createdAt,value
2018-04-30T00:00:06.500Z,990.09
2018-04-30T00:01:06.472Z,990.03
2018-04-30T00:02:06.491Z,989.99
2018-04-30T00:03:06.489Z,990.08
2018-04-30T00:04:06.471Z,990.03
2018-04-30T00:05:06.465Z,990.04
2018-04-30T00:06:06.467Z,990.10
2018-04-30T00:07:06.439Z,990.11
2018-04-30T00:08:06.438Z,990.18
2018-04-30T00:09:06.433Z,990.26
2018-04-30T00:10:06.435Z,990.33
2018-04-30T00:11:06.420Z,990.42
2018-04-30T00:12:06.435Z,990.41
2018-04-30T00:13:06.411Z,990.42
2018-04-30T00:14:06.402Z,990.37
2018-04-30T00:15:06.399Z,990.34
2018-04-30T00:16:06.397Z,990.26
2018-04-30T00:17:06.390Z,990.22
2018-04-30T00:18:06.382Z,990.29
2018-04-30T00:19:06.379Z,990.29
2018-04-30T00:20:06.386Z,990.28
2018-04-30T00:21:06.364Z,990.27
2018-04-30T00:22:06.358Z,990.32
2018-04-30T00:23:06.366Z,990.44
2018-04-30T00:24:06.356Z,990.52
2018-04-30T00:25:06.347Z,990.67
2018-04-30T00:26:06.350Z,990.83
2018-04-30T00:27:06.332Z,991.03
2018-04-30T00:28:06.345Z,991.13
2018-04-30T00:29:06.326Z,991.13
2018-04-30T00:30:06.398Z,991.06
2018-04-30T00:31:06.312Z,990.90
2018-04-30T00:32:06.345Z,990.70
2018-04-30T00:33:06.327Z,990.56
2018-04-30T00:34:06.295Z,990.31
2018-04-30T00:35:06.300Z,989.86
2018-04-30T00:36:06.286Z,989.54
2018-04-30T00:37:06.285Z,989.50
2018-04-30T00:38:06.302Z,989.79
2018-04-30T00:39:06.280Z,990.59
2018-04-30T00:40:06.276Z,991.19
2018-04-30T00:41:06.274Z,991.43
2018-04-30T00:42:06.257Z,991.18
2018-04-30T00:43:06.237Z,990.94
2018-04-30T00:44:06.235Z,990.89
2018-04-30T00:45:06.231Z,991.02
2018-04-30T00:46:06.224Z,991.17
2018-04-30T00:47:06.216Z,991.29
2018-04-30T00:48:06.216Z,991.35
2018-04-30T00:49:06.207Z,991.46
2018-04-30T00:50:06.201Z,991.62
2018-04-30T00:51:06.190Z,991.73
2018-04-30T00:52:06.187Z,991.57
2018-04-30T00:53:06.190Z,991.58
2018-04-30T00:54:06.174Z,991.54
2018-04-30T00:55:06.168Z,991.53
2018-04-30T00:56:06.173Z,991.45
2018-04-30T00:57:06.170Z,991.37
2018-04-30T00:58:06.154Z,991.34
2018-04-30T00:59:06.181Z,991.24
2018-04-30T01:00:06.138Z,991.27
2018-04-30T01:01:06.139Z,991.19
2018-04-30T01:02:06.125Z,990.98
2018-04-30T01:03:06.135Z,990.96
2018-04-30T01:04:06.682Z,990.97
2018-04-30T01:05:06.119Z,990.96
2018-04-30T01:06:06.694Z,990.87
2018-04-30T01:07:06.101Z,990.83
2018-04-30T01:08:06.106Z,990.74
2018-04-30T01:09:06.100Z,990.56
2018-04-30T01:10:06.091Z,990.40
2018-04-30T01:11:06.070Z,990.24
2018-04-30T01:12:06.063Z,990.14
2018-04-30T01:13:06.681Z,990.09
2018-04-30T01:14:06.072Z,990.04
2018-04-30T01:15:06.058Z,990.02
2018-04-30T01:16:07.673Z,989.97
2018-04-30T01:17:06.033Z,989.91
2018-04-30T01:18:06.034Z,989.82
2018-04-30T01:19:06.018Z,989.78
2018-04-30T01:20:06.014Z,989.68
2018-04-30T01:21:06.011Z,989.63
2018-04-30T01:22:05.999Z,989.54
2018-04-30T01:23:06.682Z,989.45
2018-04-30T01:24:05.989Z,989.34
2018-04-30T01:25:05.980Z,989.25
2018-04-30T01:26:05.976Z,989.14
2018-04-30T01:27:05.967Z,989.17
2018-04-30T01:28:05.964Z,989.22
2018-04-30T01:29:05.951Z,989.15
2018-04-30T01:30:05.953Z,989.10
2018-04-30T01:31:05.943Z,989.03
2018-04-30T01:32:05.949Z,989.05
2018-04-30T01:33:05.926Z,989.05
2018-04-30T01:34:05.916Z,989.17
2018-04-30T01:35:05.927Z,989.24
2018-04-30T01:36:05.942Z,989.33
2018-04-30T01:37:05.897Z,989.39
2018-04-30T01:38:05.922Z,989.36
2018-04-30T01:39:05.985Z,989.30
2018-04-30T01:40:05.880Z,989.23
2018-04-30T01:41:05.893Z,989.11
2018-04-30T01:42:05.865Z,989.07
2018-04-30T01:43:05.871Z,989.12
2018-04-30T01:44:05.851Z,989.07
2018-04-30T01:45:05.843Z,989.07
2018-04-30T01:46:05.837Z,989.07
2018-04-30T01:47:05.832Z,989.03
2018-04-30T01:48:05.830Z,989.05
2018-04-30T01:49:05.814Z,989.09
2018-04-30T01:50:05.811Z,989.16
2018-04-30T01:51:05.799Z,989.18
2018-04-30T01:52:05.819Z,989.26
2018-04-30T01:53:05.801Z,989.29
2018-04-30T01:54:05.823Z,989.33
2018-04-30T01:55:05.779Z,989.33
2018-04-30T01:56:05.770Z,989.37
2018-04-30T01:57:05.760Z,989.31
2018-04-30T01:58:05.754Z,989.29
2018-04-30T01:59:05.742Z,989.20
2018-04-30T02:00:05.741Z,989.17
2018-04-30T02:01:05.733Z,989.21
2018-04-30T02:02:05.725Z,989.18
2018-04-30T02:03:05.718Z,989.19
2018-04-30T02:04:05.708Z,989.18
2018-04-30T02:05:05.710Z,989.16
2018-04-30T02:06:05.696Z,989.15
2018-04-30T02:07:05.695Z,989.15
2018-04-30T02:08:05.682Z,989.12
2018-04-30T02:09:05.705Z,989.10
2018-04-30T02:10:05.670Z,989.08
2018-04-30T02:11:05.660Z,989.10
2018-04-30T02:12:05.655Z,989.11
2018-04-30T02:13:05.657Z,989.13
2018-04-30T02:14:05.644Z,989.06
2018-04-30T02:15:05.644Z,989.11
2018-04-30T02:16:05.628Z,989.12
2018-04-30T02:17:05.624Z,989.18
2018-04-30T02:18:05.607Z,989.23
2018-04-30T02:19:05.606Z,989.24
2018-04-30T02:20:05.591Z,989.24
2018-04-30T02:21:05.590Z,989.25
2018-04-30T02:22:05.580Z,989.22
2018-04-30T02:23:05.573Z,989.14
2018-04-30T02:24:05.580Z,989.10
2018-04-30T02:25:05.578Z,989.04
2018-04-30T02:26:05.560Z,989.03
2018-04-30T02:27:05.548Z,989.00
2018-04-30T02:28:05.542Z,989.02
2018-04-30T02:29:05.536Z,989.03
2018-04-30T02:30:05.526Z,988.96
2018-04-30T02:31:05.516Z,988.97
2018-04-30T02:32:05.512Z,988.94
2018-04-30T02:33:05.513Z,988.95
2018-04-30T02:34:05.505Z,988.95
2018-04-30T02:35:05.492Z,988.96
2018-04-30T02:36:05.488Z,988.97
2018-04-30T02:37:05.475Z,988.97
2018-04-30T02:38:05.482Z,988.98
2018-04-30T02:39:05.462Z,988.95
2018-04-30T02:40:05.458Z,988.95
2018-04-30T02:41:05.451Z,988.95
2018-04-30T02:42:05.440Z,988.94
2018-04-30T02:43:05.435Z,988.96
2018-04-30T02:44:05.424Z,988.97
2018-04-30T02:45:05.423Z,988.96
2018-04-30T02:46:05.412Z,988.99
2018-04-30T02:47:05.408Z,989.03
2018-04-30T02:48:05.398Z,989.03
2018-04-30T02:49:05.394Z,989.03
2018-04-30T02:50:05.384Z,989.08
2018-04-30T02:51:05.374Z,989.09
2018-04-30T02:52:05.375Z,989.05
2018-04-30T02:53:05.366Z,989.06
2018-04-30T02:54:05.356Z,989.03
2018-04-30T02:55:05.348Z,989.01
2018-04-30T02:56:05.345Z,989.01
2018-04-30T02:57:05.336Z,989.02
2018-04-30T02:58:05.328Z,989.06
2018-04-30T02:59:05.317Z,989.01
2018-04-30T03:00:05.309Z,989.02
2018-04-30T03:01:05.304Z,989.01
2018-04-30T03:02:05.301Z,988.96
2018-04-30T03:03:05.297Z,988.95
2018-04-30T03:04:05.282Z,988.94
2018-04-30T03:05:05.281Z,989.00
2018-04-30T03:06:05.268Z,989.08
2018-04-30T03:07:05.259Z,989.12
2018-04-30T03:08:05.257Z,989.13
2018-04-30T03:09:05.255Z,989.11
2018-04-30T03:10:05.241Z,989.11
2018-04-30T03:11:05.231Z,989.04
2018-04-30T03:12:05.228Z,989.01
2018-04-30T03:13:05.216Z,989.03
2018-04-30T03:14:05.234Z,989.06
2018-04-30T03:15:05.215Z,989.07
2018-04-30T03:16:05.212Z,989.06
2018-04-30T03:17:05.188Z,989.05
2018-04-30T03:18:05.188Z,989.07
2018-04-30T03:19:05.183Z,989.05
2018-04-30T03:20:05.168Z,989.08
2018-04-30T03:21:05.160Z,989.06
2018-04-30T03:22:05.158Z,989.00
2018-04-30T03:23:05.162Z,989.01
2018-04-30T03:24:05.142Z,988.88
2018-04-30T03:25:05.139Z,988.84
2018-04-30T03:26:05.124Z,988.76
2018-04-30T03:27:05.117Z,988.79
2018-04-30T03:28:05.110Z,988.78
2018-04-30T03:29:05.104Z,988.76
2018-04-30T03:30:05.100Z,988.80
2018-04-30T03:31:05.090Z,988.77
2018-04-30T03:32:05.083Z,988.73
2018-04-30T03:33:05.075Z,988.70
2018-04-30T03:34:05.072Z,988.65
2018-04-30T03:35:05.061Z,988.62
2018-04-30T03:36:05.054Z,988.70
2018-04-30T03:37:05.047Z,988.76
2018-04-30T03:38:05.042Z,988.80
2018-04-30T03:39:05.035Z,988.75
2018-04-30T03:40:05.033Z,988.76
2018-04-30T03:41:05.020Z,988.72
2018-04-30T03:42:05.021Z,988.76
2018-04-30T03:43:05.006Z,988.73
2018-04-30T03:44:04.999Z,988.77
2018-04-30T03:45:04.993Z,988.76
2018-04-30T03:46:04.986Z,988.79
2018-04-30T03:47:04.979Z,988.80
2018-04-30T03:48:04.971Z,988.80
2018-04-30T03:49:04.962Z,988.84
2018-04-30T03:50:04.953Z,988.87
2018-04-30T03:51:04.950Z,988.82
2018-04-30T03:52:04.943Z,988.84
2018-04-30T03:53:04.938Z,988.86
2018-04-30T03:54:04.938Z,988.88
2018-04-30T03:55:04.918Z,988.91
2018-04-30T03:56:04.913Z,988.89
2018-04-30T03:57:04.908Z,988.91
2018-04-30T03:58:04.895Z,988.91
2018-04-30T03:59:04.892Z,988.91
2018-04-30T04:00:04.886Z,988.87
2018-04-30T04:01:04.882Z,988.85
2018-04-30T04:02:04.867Z,988.86
2018-04-30T04:03:04.938Z,988.90
2018-04-30T04:04:04.854Z,988.90
2018-04-30T04:05:04.853Z,988.98
2018-04-30T04:06:04.840Z,988.99
2018-04-30T04:07:04.852Z,989.01
2018-04-30T04:08:04.825Z,989.06
2018-04-30T04:09:04.831Z,989.11
2018-04-30T04:10:04.814Z,989.10
2018-04-30T04:11:04.816Z,989.16
2018-04-30T04:12:04.817Z,989.19
2018-04-30T04:13:04.793Z,989.18
2018-04-30T04:14:04.783Z,989.20
2018-04-30T04:15:04.778Z,989.20
2018-04-30T04:16:04.781Z,989.23
2018-04-30T04:17:04.763Z,989.30
2018-04-30T04:18:04.753Z,989.31
2018-04-30T04:19:04.747Z,989.25
2018-04-30T04:20:04.744Z,989.23
2018-04-30T04:21:04.739Z,989.30
2018-04-30T04:22:04.729Z,989.30
2018-04-30T04:23:04.735Z,989.30
2018-04-30T04:24:04.711Z,989.30
2018-04-30T04:25:04.711Z,989.32
2018-04-30T04:26:04.694Z,989.36
2018-04-30T04:27:04.691Z,989.40
2018-04-30T04:28:04.685Z,989.40
2018-04-30T04:29:04.674Z,989.45
2018-04-30T04:30:04.670Z,989.46
2018-04-30T04:31:04.660Z,989.45
2018-04-30T04:32:04.655Z,989.49
2018-04-30T04:33:04.649Z,989.53
2018-04-30T04:34:04.642Z,989.56
2018-04-30T04:35:04.645Z,989.64
2018-04-30T04:36:04.621Z,989.70
2018-04-30T04:37:04.639Z,989.73
2018-04-30T04:38:04.617Z,989.72
2018-04-30T04:39:04.606Z,989.65
2018-04-30T04:40:04.600Z,989.64
2018-04-30T04:41:04.595Z,989.63
2018-04-30T04:42:04.580Z,989.67
2018-04-30T04:43:04.576Z,989.70
2018-04-30T04:44:04.564Z,989.69
2018-04-30T04:45:04.561Z,989.66
2018-04-30T04:46:04.553Z,989.68
2018-04-30T04:47:04.544Z,989.60
2018-04-30T04:48:04.544Z,989.62
2018-04-30T04:49:04.535Z,989.65
2018-04-30T04:50:04.522Z,989.65
2018-04-30T04:51:04.542Z,989.63
2018-04-30T04:52:04.508Z,989.68
2018-04-30T04:53:04.503Z,989.72
2018-04-30T04:54:04.499Z,989.76
2018-04-30T04:55:04.488Z,989.77
2018-04-30T04:56:04.481Z,989.77
2018-04-30T04:57:04.474Z,989.82
2018-04-30T04:58:04.462Z,989.83
2018-04-30T04:59:04.455Z,989.90
2018-04-30T05:00:04.454Z,989.91
2018-04-30T05:01:04.445Z,989.91
2018-04-30T05:02:04.438Z,989.87
2018-04-30T05:03:04.433Z,989.86
2018-04-30T05:04:04.421Z,989.88
2018-04-30T05:05:04.413Z,989.90
2018-04-30T05:06:04.409Z,989.89
2018-04-30T05:07:04.405Z,989.87
2018-04-30T05:08:04.396Z,989.90
2018-04-30T05:09:04.386Z,989.88
2018-04-30T05:10:04.381Z,989.94
2018-04-30T05:11:04.379Z,989.88
2018-04-30T05:12:04.363Z,989.99
2018-04-30T05:13:05.011Z,989.98
2018-04-30T05:14:04.348Z,989.99
2018-04-30T05:15:04.342Z,990.02
2018-04-30T05:16:04.333Z,990.01
2018-04-30T05:17:04.328Z,990.00
2018-04-30T05:18:04.324Z,990.02
2018-04-30T05:19:04.314Z,990.07
2018-04-30T05:20:04.311Z,990.12
2018-04-30T05:21:04.299Z,990.08
2018-04-30T05:22:04.290Z,990.12
2018-04-30T05:23:04.290Z,990.11
2018-04-30T05:24:04.283Z,990.14
2018-04-30T05:25:04.273Z,990.14
2018-04-30T05:26:04.263Z,990.09
2018-04-30T05:27:04.264Z,990.07
2018-04-30T05:28:04.255Z,990.12
2018-04-30T05:29:04.245Z,990.12
2018-04-30T05:30:04.256Z,990.08
2018-04-30T05:31:04.232Z,990.12
2018-04-30T05:32:04.227Z,990.14
2018-04-30T05:33:04.217Z,990.17
2018-04-30T05:34:04.211Z,990.16
2018-04-30T05:35:04.209Z,990.08
2018-04-30T05:36:04.193Z,990.07
2018-04-30T05:37:04.189Z,990.07
2018-04-30T05:38:04.176Z,990.08
2018-04-30T05:39:04.194Z,990.07
2018-04-30T05:40:04.188Z,990.04
2018-04-30T05:41:04.170Z,990.07
2018-04-30T05:42:04.167Z,990.04
2018-04-30T05:43:04.156Z,990.02
2018-04-30T05:44:04.147Z,990.01
2018-04-30T05:45:04.134Z,989.98
2018-04-30T05:46:04.134Z,990.01
2018-04-30T05:47:04.118Z,989.96
2018-04-30T05:48:05.840Z,989.99
2018-04-30T05:49:04.109Z,989.98
2018-04-30T05:50:04.128Z,989.99
2018-04-30T05:51:04.090Z,990.01
2018-04-30T05:52:04.082Z,989.99
2018-04-30T05:53:04.079Z,990.00
2018-04-30T05:54:04.069Z,990.14
2018-04-30T05:55:04.059Z,990.18
2018-04-30T05:56:04.054Z,990.18
2018-04-30T05:57:04.048Z,990.19
2018-04-30T05:58:04.047Z,990.21
2018-04-30T05:59:04.039Z,990.24
2018-04-30T06:00:04.028Z,990.25
2018-04-30T06:01:04.021Z,990.27
2018-04-30T06:02:04.013Z,990.17
2018-04-30T06:03:04.011Z,990.22
2018-04-30T06:04:03.999Z,990.21
2018-04-30T06:05:04.000Z,990.23
2018-04-30T06:06:03.993Z,990.16
2018-04-30T06:07:03.984Z,990.19
2018-04-30T06:08:03.971Z,990.10
2018-04-30T06:09:03.964Z,990.19
2018-04-30T06:10:03.960Z,990.15
2018-04-30T06:11:03.960Z,990.16
2018-04-30T06:12:03.953Z,990.23
2018-04-30T06:13:03.943Z,990.27
2018-04-30T06:14:03.933Z,990.25
2018-04-30T06:15:03.921Z,990.30
2018-04-30T06:16:03.918Z,990.29
2018-04-30T06:17:03.911Z,990.23
2018-04-30T06:18:03.908Z,990.25
2018-04-30T06:19:03.895Z,990.31
2018-04-30T06:20:03.893Z,990.29
2018-04-30T06:21:03.883Z,990.37
2018-04-30T06:22:03.875Z,990.40
2018-04-30T06:23:03.873Z,990.42
2018-04-30T06:24:03.864Z,990.50
2018-04-30T06:25:03.854Z,990.52
2018-04-30T06:26:03.846Z,990.59
2018-04-30T06:27:03.844Z,990.64
2018-04-30T06:28:03.834Z,990.55
2018-04-30T06:29:03.828Z,990.52
2018-04-30T06:30:03.822Z,990.55
2018-04-30T06:31:03.815Z,990.45
2018-04-30T06:32:03.805Z,990.55
2018-04-30T06:33:03.812Z,990.52
2018-04-30T06:34:03.797Z,990.61
2018-04-30T06:35:03.785Z,990.62
2018-04-30T06:36:03.779Z,990.64
2018-04-30T06:37:03.770Z,990.60
2018-04-30T06:38:03.769Z,990.64
2018-04-30T06:39:03.778Z,990.65
2018-04-30T06:40:03.753Z,990.59
2018-04-30T06:41:03.757Z,990.63
2018-04-30T06:42:03.743Z,990.60
2018-04-30T06:43:03.741Z,990.61
2018-04-30T06:44:03.721Z,990.75
2018-04-30T06:45:03.716Z,990.79
2018-04-30T06:46:03.712Z,990.86
2018-04-30T06:47:03.704Z,990.88
2018-04-30T06:48:03.698Z,990.85
2018-04-30T06:49:03.687Z,990.74
2018-04-30T06:50:03.684Z,990.82
2018-04-30T06:51:03.678Z,990.82
2018-04-30T06:52:03.667Z,990.76
2018-04-30T06:53:03.664Z,990.79
2018-04-30T06:54:03.653Z,990.78
2018-04-30T06:55:03.647Z,990.73
2018-04-30T06:56:03.725Z,990.65
2018-04-30T06:57:03.632Z,990.67
2018-04-30T06:58:03.634Z,990.64
2018-04-30T06:59:03.619Z,990.67
2018-04-30T07:00:03.613Z,990.70
2018-04-30T07:01:03.613Z,990.71
2018-04-30T07:02:03.603Z,990.74
2018-04-30T07:03:03.595Z,990.79
2018-04-30T07:04:03.584Z,990.92
2018-04-30T07:05:03.579Z,990.96
2018-04-30T07:06:03.573Z,990.97
2018-04-30T07:07:03.564Z,990.95
2018-04-30T07:08:03.565Z,990.97
2018-04-30T07:09:03.587Z,991.03
2018-04-30T07:10:03.546Z,991.13
2018-04-30T07:11:03.539Z,990.98
2018-04-30T07:12:03.543Z,991.05
2018-04-30T07:13:03.521Z,991.06
2018-04-30T07:14:03.516Z,991.03
2018-04-30T07:15:03.510Z,991.21
2018-04-30T07:16:03.502Z,990.98
2018-04-30T07:17:03.498Z,991.14
2018-04-30T07:18:03.489Z,991.12
2018-04-30T07:19:03.486Z,991.14
2018-04-30T07:20:03.489Z,991.13
2018-04-30T07:21:03.469Z,991.14
2018-04-30T07:22:03.469Z,991.11
2018-04-30T07:23:03.454Z,991.19
2018-04-30T07:24:03.456Z,991.08
2018-04-30T07:25:03.446Z,991.06
2018-04-30T07:26:03.436Z,991.14
2018-04-30T07:27:03.426Z,991.05
2018-04-30T07:28:03.425Z,990.95
2018-04-30T07:29:03.417Z,991.03
2018-04-30T07:30:03.411Z,991.07
2018-04-30T07:31:03.414Z,991.01
2018-04-30T07:32:03.397Z,991.01
2018-04-30T07:33:03.398Z,991.02
2018-04-30T07:34:03.383Z,991.10
2018-04-30T07:35:03.377Z,991.12
2018-04-30T07:36:03.370Z,991.18
2018-04-30T07:37:03.368Z,991.21
2018-04-30T07:38:03.362Z,991.16
2018-04-30T07:39:03.418Z,991.25
2018-04-30T07:40:03.349Z,991.28
2018-04-30T07:41:03.342Z,991.49
2018-04-30T07:42:03.338Z,991.34
2018-04-30T07:43:03.329Z,991.44
2018-04-30T07:44:03.326Z,991.49
2018-04-30T07:45:03.317Z,991.48
2018-04-30T07:46:03.314Z,991.59
2018-04-30T07:47:03.309Z,991.65
2018-04-30T07:48:03.301Z,991.58
2018-04-30T07:49:03.299Z,991.54
2018-04-30T07:50:03.307Z,991.58
2018-04-30T07:51:03.283Z,991.55
2018-04-30T07:52:03.275Z,991.48
2018-04-30T07:53:03.269Z,991.61
2018-04-30T07:54:03.263Z,991.74
2018-04-30T07:55:03.256Z,991.59
2018-04-30T07:56:03.248Z,991.70
2018-04-30T07:57:03.242Z,991.77
2018-04-30T07:58:03.238Z,991.68
2018-04-30T07:59:03.234Z,991.76
2018-04-30T08:00:03.225Z,991.77
2018-04-30T08:01:03.220Z,991.48
2018-04-30T08:02:03.216Z,991.76
2018-04-30T08:03:03.290Z,991.78
2018-04-30T08:04:03.198Z,991.78
2018-04-30T08:05:03.194Z,991.85
2018-04-30T08:06:03.185Z,991.85
2018-04-30T08:07:03.181Z,991.93
2018-04-30T08:08:03.175Z,991.95
2018-04-30T08:09:03.211Z,991.95
2018-04-30T08:10:03.163Z,991.85
2018-04-30T08:11:03.153Z,991.98
2018-04-30T08:12:03.153Z,991.90
2018-04-30T08:13:03.153Z,991.87
2018-04-30T08:14:03.134Z,991.96
2018-04-30T08:15:03.133Z,991.97
2018-04-30T08:16:03.121Z,991.99
2018-04-30T08:17:03.120Z,991.98
2018-04-30T08:18:03.107Z,992.04
2018-04-30T08:19:03.101Z,992.04
2018-04-30T08:20:03.100Z,992.10
2018-04-30T08:21:03.093Z,992.14
2018-04-30T08:22:03.094Z,992.07
2018-04-30T08:23:03.078Z,992.10
2018-04-30T08:24:03.070Z,992.09
2018-04-30T08:25:03.061Z,992.11
2018-04-30T08:26:03.059Z,992.10
2018-04-30T08:27:03.053Z,992.15
2018-04-30T08:28:03.045Z,992.20
2018-04-30T08:29:03.037Z,992.24
2018-04-30T08:30:03.032Z,992.21
2018-04-30T08:31:03.022Z,992.32
2018-04-30T08:32:03.020Z,992.34
2018-04-30T08:33:03.010Z,992.38
2018-04-30T08:34:03.007Z,992.39
2018-04-30T08:35:03.000Z,992.39
2018-04-30T08:36:02.994Z,992.48
2018-04-30T08:37:02.988Z,992.43
2018-04-30T08:38:03.060Z,992.42
2018-04-30T08:39:02.968Z,992.40
2018-04-30T08:40:02.972Z,992.39
2018-04-30T08:41:02.965Z,992.49
2018-04-30T08:42:02.956Z,992.45
2018-04-30T08:43:02.946Z,992.43
2018-04-30T08:44:02.931Z,992.46
2018-04-30T08:45:02.998Z,992.51
2018-04-30T08:46:02.921Z,992.57
2018-04-30T08:47:02.916Z,992.59
2018-04-30T08:48:02.921Z,992.63
2018-04-30T08:49:02.900Z,992.61
2018-04-30T08:50:02.894Z,992.63
2018-04-30T08:51:02.884Z,992.73
2018-04-30T08:52:02.885Z,992.78
2018-04-30T08:53:02.873Z,992.77
2018-04-30T08:54:02.870Z,992.95
2018-04-30T08:55:02.858Z,992.79
2018-04-30T08:56:02.854Z,992.69
2018-04-30T08:57:02.843Z,992.83
2018-04-30T08:58:02.836Z,992.84
2018-04-30T08:59:02.831Z,993.05
2018-04-30T09:00:02.822Z,992.88
2018-04-30T09:01:02.816Z,992.86
2018-04-30T09:02:02.811Z,992.96
2018-04-30T09:03:02.803Z,992.95
2018-04-30T09:04:02.792Z,992.98
2018-04-30T09:05:02.795Z,992.92
2018-04-30T09:06:02.787Z,993.01
2018-04-30T09:07:02.782Z,992.96
2018-04-30T09:08:02.764Z,992.91
2018-04-30T09:09:02.755Z,993.11
2018-04-30T09:10:02.752Z,993.08
2018-04-30T09:11:02.745Z,993.05
2018-04-30T09:12:02.757Z,993.00
2018-04-30T09:13:02.743Z,993.13
2018-04-30T09:14:02.729Z,993.06
2018-04-30T09:15:02.722Z,993.05
2018-04-30T09:16:02.709Z,993.16
2018-04-30T09:17:02.700Z,993.14
2018-04-30T09:18:02.695Z,993.27
2018-04-30T09:19:02.686Z,993.15
2018-04-30T09:20:02.685Z,993.18
2018-04-30T09:21:02.678Z,993.21
2018-04-30T09:22:02.667Z,993.11
2018-04-30T09:23:02.657Z,993.08
2018-04-30T09:24:02.648Z,993.03
2018-04-30T09:25:02.643Z,993.07
2018-04-30T09:26:02.638Z,993.12
2018-04-30T09:27:02.633Z,993.04
2018-04-30T09:28:02.665Z,992.96
2018-04-30T09:29:02.627Z,992.99
2018-04-30T09:30:02.604Z,993.10
2018-04-30T09:31:02.599Z,993.11
2018-04-30T09:32:02.596Z,992.95
2018-04-30T09:33:02.592Z,993.00
2018-04-30T09:34:02.586Z,992.95
2018-04-30T09:35:02.610Z,992.98
2018-04-30T09:36:02.568Z,993.21
2018-04-30T09:37:02.560Z,993.14
2018-04-30T09:38:02.562Z,993.12
2018-04-30T09:39:03.332Z,993.08
2018-04-30T09:40:02.542Z,993.12
2018-04-30T09:41:02.542Z,993.18
2018-04-30T09:42:02.525Z,993.15
2018-04-30T09:43:02.516Z,993.10
2018-04-30T09:44:02.515Z,993.26
2018-04-30T09:45:02.506Z,993.26
2018-04-30T09:46:02.491Z,993.25
2018-04-30T09:47:02.490Z,993.34
2018-04-30T09:48:02.484Z,993.26
2018-04-30T09:49:02.474Z,993.20
2018-04-30T09:50:02.467Z,993.30
2018-04-30T09:51:02.455Z,993.27
2018-04-30T09:52:02.488Z,993.24
2018-04-30T09:53:02.443Z,993.28
2018-04-30T09:54:02.440Z,993.25
2018-04-30T09:55:02.428Z,993.23
2018-04-30T09:56:02.425Z,993.19
2018-04-30T09:57:02.415Z,993.21
2018-04-30T09:58:02.414Z,993.26
2018-04-30T09:59:02.401Z,993.27
2018-04-30T10:00:02.393Z,993.29
2018-04-30T10:01:02.388Z,993.36
2018-04-30T10:02:02.388Z,993.34
2018-04-30T10:03:02.380Z,993.33
2018-04-30T10:04:02.363Z,993.33
2018-04-30T10:05:02.358Z,993.29
2018-04-30T10:06:02.347Z,993.30
2018-04-30T10:07:02.345Z,993.31
2018-04-30T10:08:02.337Z,993.40
2018-04-30T10:09:02.337Z,993.29
2018-04-30T10:10:02.333Z,993.36
2018-04-30T10:11:02.306Z,993.30
2018-04-30T10:12:02.312Z,993.38
2018-04-30T10:13:02.299Z,993.29
2018-04-30T10:14:02.297Z,993.32
2018-04-30T10:15:02.284Z,993.39
2018-04-30T10:16:02.277Z,993.44
2018-04-30T10:17:02.269Z,993.48
2018-04-30T10:18:02.266Z,993.45
2018-04-30T10:19:02.257Z,993.54
2018-04-30T10:20:02.251Z,993.62
2018-04-30T10:21:02.241Z,993.58
2018-04-30T10:22:02.236Z,993.61
2018-04-30T10:23:02.229Z,993.57
2018-04-30T10:24:02.220Z,993.60
2018-04-30T10:25:02.212Z,993.57
2018-04-30T10:26:02.220Z,993.51
2018-04-30T10:27:02.200Z,993.47
2018-04-30T10:28:02.192Z,993.43
2018-04-30T10:29:02.187Z,993.38
2018-04-30T10:30:02.177Z,993.40
2018-04-30T10:31:02.167Z,993.34
2018-04-30T10:32:02.165Z,993.35
2018-04-30T10:33:02.158Z,993.25
2018-04-30T10:34:02.145Z,993.33
2018-04-30T10:35:02.136Z,993.28
2018-04-30T10:36:02.129Z,993.33
2018-04-30T10:37:02.129Z,993.30
2018-04-30T10:38:02.165Z,993.26
2018-04-30T10:39:02.109Z,993.31
2018-04-30T10:40:02.104Z,993.27
2018-04-30T10:41:02.094Z,993.27
2018-04-30T10:42:02.091Z,993.22
2018-04-30T10:43:02.084Z,993.21
2018-04-30T10:44:02.071Z,993.24
2018-04-30T10:45:02.069Z,993.17
2018-04-30T10:46:02.136Z,993.07
2018-04-30T10:47:02.055Z,993.04
2018-04-30T10:48:02.058Z,993.06
2018-04-30T10:49:02.038Z,993.25
2018-04-30T10:50:02.036Z,993.08
2018-04-30T10:51:02.025Z,992.95
2018-04-30T10:52:02.021Z,992.94
2018-04-30T10:53:02.023Z,992.87
2018-04-30T10:54:02.009Z,992.82
2018-04-30T10:55:02.029Z,992.87
2018-04-30T10:56:02.009Z,992.89
2018-04-30T10:57:01.993Z,992.83
2018-04-30T10:58:01.980Z,992.83
2018-04-30T10:59:01.972Z,992.83
2018-04-30T11:00:01.977Z,992.88
2018-04-30T11:01:01.968Z,992.84
2018-04-30T11:02:01.963Z,992.83
2018-04-30T11:03:01.953Z,992.91
2018-04-30T11:04:01.954Z,992.82
2018-04-30T11:05:01.936Z,992.90
2018-04-30T11:06:01.937Z,992.90
2018-04-30T11:07:01.924Z,992.97
2018-04-30T11:08:01.919Z,992.95
2018-04-30T11:09:01.912Z,992.93
2018-04-30T11:10:01.907Z,993.01
2018-04-30T11:11:01.906Z,992.96
2018-04-30T11:12:01.909Z,993.00
2018-04-30T11:13:01.897Z,993.00
2018-04-30T11:14:02.849Z,993.06
2018-04-30T11:15:01.873Z,993.05
2018-04-30T11:16:01.867Z,993.02
2018-04-30T11:17:01.865Z,993.03
2018-04-30T11:18:01.854Z,993.07
2018-04-30T11:19:01.859Z,992.98
2018-04-30T11:20:02.352Z,993.10
2018-04-30T11:21:01.842Z,993.13
2018-04-30T11:22:01.839Z,992.99
2018-04-30T11:23:01.836Z,992.93
2018-04-30T11:24:01.832Z,993.14
2018-04-30T11:25:01.834Z,992.91
2018-04-30T11:26:01.832Z,993.04
2018-04-30T11:27:01.825Z,992.99
2018-04-30T11:28:01.821Z,993.00
2018-04-30T11:29:01.816Z,992.97
2018-04-30T11:30:01.821Z,992.96
2018-04-30T11:31:01.809Z,993.23
2018-04-30T11:32:01.810Z,993.15
2018-04-30T11:33:01.807Z,993.06
2018-04-30T11:34:01.859Z,993.04
2018-04-30T11:35:01.798Z,993.15
2018-04-30T11:36:01.800Z,993.07
2018-04-30T11:37:01.801Z,993.19
2018-04-30T11:38:01.797Z,993.04
2018-04-30T11:39:01.799Z,993.01
2018-04-30T11:40:01.806Z,992.97
2018-04-30T11:41:01.796Z,992.94
2018-04-30T11:42:01.800Z,992.96
2018-04-30T11:43:01.800Z,993.11
2018-04-30T11:44:01.792Z,993.01
2018-04-30T11:45:01.794Z,993.01
2018-04-30T11:46:01.789Z,992.98
2018-04-30T11:47:01.802Z,993.01
2018-04-30T11:48:01.785Z,992.96
2018-04-30T11:49:01.783Z,992.97
2018-04-30T11:50:01.780Z,993.01
2018-04-30T11:51:01.788Z,993.06
2018-04-30T11:52:01.783Z,993.14
2018-04-30T11:53:01.776Z,993.10
2018-04-30T11:54:01.774Z,993.11
2018-04-30T11:55:01.765Z,993.19
2018-04-30T11:56:01.762Z,993.17
2018-04-30T11:57:01.756Z,993.15
2018-04-30T11:58:01.758Z,993.25
2018-04-30T11:59:01.766Z,993.21
2018-04-30T12:00:01.753Z,993.12
2018-04-30T12:01:01.746Z,993.16
2018-04-30T12:02:01.740Z,993.23
2018-04-30T12:03:01.743Z,993.18
2018-04-30T12:04:01.734Z,993.21
2018-04-30T12:05:01.730Z,993.23
2018-04-30T12:06:01.722Z,993.23
2018-04-30T12:07:01.721Z,993.21
2018-04-30T12:08:01.721Z,993.26
2018-04-30T12:09:01.709Z,993.38
2018-04-30T12:10:01.705Z,993.19
2018-04-30T12:11:01.763Z,993.31
2018-04-30T12:12:01.699Z,993.56
2018-04-30T12:13:01.692Z,993.49
2018-04-30T12:14:01.691Z,993.34
2018-04-30T12:15:01.686Z,993.44
2018-04-30T12:16:01.680Z,993.39
2018-04-30T12:17:01.678Z,993.23
2018-04-30T12:18:01.668Z,993.19
2018-04-30T12:19:01.670Z,993.31
2018-04-30T12:20:01.665Z,993.28
2018-04-30T12:21:01.659Z,993.38
2018-04-30T12:22:01.681Z,993.40
2018-04-30T12:23:01.645Z,993.34
2018-04-30T12:24:01.642Z,993.36
2018-04-30T12:25:01.638Z,993.39
2018-04-30T12:26:01.633Z,993.50
2018-04-30T12:27:01.631Z,993.39
2018-04-30T12:28:01.623Z,993.46